Terminal Aerodrome Forecast
Issued by NWS

Home | Current Version | Previous Version | Text Only | Print | Product List | Glossary On
Versions: 1 2 3 4 5 6 7 8 9 10 11 12 13 14 15
000
FTUS43 KIND 302300
TAFBMG
TAF
KBMG 302322Z 3100/3124 20010KT 6SM BR VCSH SCT015 BKN025
     FM310300 20008KT 5SM -SHRA VCTS BKN015CB
     FM310900 21006KT 4SM BR VCTS BKN015CB
     FM311600 20007KT P6SM VCTS BKN025CB
      AMD LTD TO CLD VIS AND WIND 3101/3113=

USA.gov is the U.S. government's official web portal to all federal, state and local government web resources and services.